KNUW/NUW METAR and TAF weather

Enter ICAO airport designator
Station Type Date Time Source
KNUW METAR 2021/09/20 05:56 UTC NOAA

KNUW 200556Z 23010KT 10SM FEW040 SCT060 BKN100 13/11 A3024 RMK AO2 SLP238 T01330106 10183 20128 51024 $


Station Type Date Time Source
KNUW Decoded METAR 2021/09/20 05:56 UTC NOAA

NAS WHIDBEY ISLAND, WA, United States (KNUW) 48-21N 122-39W 8M
Sep 20, 2021 - 01:56 AM EDT / 2021.09.20 0556 UTC
Wind: from the SW (230 degrees) at 12 MPH (10 KT):0
Visibility: 10 mile(s):0
Sky conditions: mostly cloudy
Temperature: 55.9 F (13.3 C)
Dew Point: 51.1 F (10.6 C)
Relative Humidity: 83%
Pressure (altimeter): 30.24 in. Hg (1024 hPa)
Pressure tendency: 0.07 inches (2.4 hPa) higher than three hours ago
ob: KNUW 200556Z 23010KT 10SM FEW040 SCT060 BKN100 13/11 A3024 RMK AO2 SLP238 T01330106 10183 20128 51024
cycle: 6

Station Type Date Time Source
KNUW TAF 2021/09/19 23:24 UTC NOAA

TAF TAF
AMD KNUW 1923/2023 22009KT 9999 FEW015 SCT025 BKN080 QNH3003INS
TEMPO 2000/2006 27012G18KT 9000 -SHRA BKN025 OVC060
FM200600 VRB06KT 9999 SCT010 BKN025 BKN080 QNH3018INS
TEMPO 2006/2012 9000 BR BKN008
FM201200 VRB06KT 9999 SCT050 SCT250 QNH3025INS T12/2013Z T18/2022Z
AMD 2119 FS30014

Example: see airport list